createdAt,value
2023-04-27T00:04:44.816Z,2.42
2023-04-27T00:07:12.951Z,2.53
2023-04-27T00:09:41.142Z,2.47
2023-04-27T00:12:09.047Z,2.47
2023-04-27T00:14:36.969Z,2.50
2023-04-27T00:17:04.961Z,2.45
2023-04-27T00:19:32.923Z,3.03
2023-04-27T00:22:00.932Z,2.60
2023-04-27T00:24:28.919Z,2.42
2023-04-27T00:26:57.693Z,2.42
2023-04-27T00:29:25.807Z,2.55
2023-04-27T00:31:53.778Z,2.75
2023-04-27T00:34:23.635Z,2.28
2023-04-27T00:36:51.934Z,2.45
2023-04-27T00:39:21.698Z,2.63
2023-04-27T00:41:49.623Z,2.75
2023-04-27T00:44:26.907Z,2.50
2023-04-27T00:46:55.072Z,2.80
2023-04-27T00:49:24.271Z,2.40
2023-04-27T00:51:52.287Z,2.10
2023-04-27T00:54:21.375Z,2.53
2023-04-27T00:56:52.860Z,2.38
2023-04-27T01:01:49.066Z,3.20
2023-04-27T01:04:18.031Z,2.65
2023-04-27T01:06:46.176Z,2.25
2023-04-27T01:09:14.639Z,2.42
2023-04-27T01:11:42.778Z,2.75
2023-04-27T01:14:11.252Z,2.70
2023-04-27T01:16:39.421Z,2.15
2023-04-27T01:19:08.922Z,2.85
2023-04-27T01:21:37.014Z,2.38
2023-04-27T01:24:06.481Z,2.50
2023-04-27T01:26:34.537Z,2.53
2023-04-27T01:29:02.836Z,2.20
2023-04-27T01:31:31.199Z,2.08
2023-04-27T01:33:59.129Z,2.20
2023-04-27T01:36:28.171Z,2.80
2023-04-27T01:38:57.981Z,2.47
2023-04-27T01:41:25.925Z,2.37
2023-04-27T01:43:53.793Z,2.05
2023-04-27T01:46:22.795Z,2.22
2023-04-27T01:48:51.693Z,2.67
2023-04-27T01:51:19.996Z,2.50
2023-04-27T01:53:48.726Z,2.50
2023-04-27T01:56:17.616Z,2.92
2023-04-27T01:58:46.140Z,1.85
2023-04-27T02:01:14.724Z,1.90
2023-04-27T02:03:42.773Z,2.70
2023-04-27T02:06:10.911Z,3.23
2023-04-27T02:08:40.611Z,2.10
2023-04-27T02:11:10.040Z,2.95
2023-04-27T02:13:37.906Z,1.83
2023-04-27T02:16:06.498Z,1.83
2023-04-27T02:18:35.086Z,2.70
2023-04-27T02:21:09.777Z,2.03
2023-04-27T02:23:38.198Z,2.00
2023-04-27T02:26:06.215Z,2.47
2023-04-27T02:28:34.200Z,2.20
2023-04-27T02:31:03.101Z,2.50
2023-04-27T02:33:31.416Z,2.10
2023-04-27T02:35:59.410Z,1.80
2023-04-27T02:38:30.281Z,2.77
2023-04-27T02:40:58.249Z,2.83
2023-04-27T02:43:27.324Z,2.40
2023-04-27T02:45:55.432Z,2.13
2023-04-27T02:48:23.288Z,2.50
2023-04-27T02:50:51.755Z,2.20
2023-04-27T02:53:19.720Z,1.90
2023-04-27T02:55:48.382Z,2.10
2023-04-27T02:58:17.069Z,2.77
2023-04-27T03:00:45.472Z,2.10
2023-04-27T03:03:13.600Z,2.20
2023-04-27T03:05:41.723Z,2.53
2023-04-27T03:08:09.645Z,2.87
2023-04-27T03:10:37.489Z,2.53
2023-04-27T03:13:06.134Z,1.43
2023-04-27T03:15:36.210Z,1.73
2023-04-27T03:18:04.446Z,2.20
2023-04-27T03:20:32.422Z,1.97
2023-04-27T03:23:00.313Z,2.17
2023-04-27T03:25:28.287Z,2.50
2023-04-27T03:27:56.763Z,1.90
2023-04-27T03:30:24.771Z,2.10
2023-04-27T03:32:52.716Z,1.83
2023-04-27T03:35:20.750Z,1.70
2023-04-27T03:37:48.612Z,1.90
2023-04-27T03:40:17.599Z,1.93
2023-04-27T03:42:45.708Z,1.73
2023-04-27T03:45:13.714Z,2.50
2023-04-27T03:47:41.697Z,2.20
2023-04-27T03:50:10.165Z,1.73
2023-04-27T03:52:38.133Z,2.87
2023-04-27T03:55:07.101Z,2.33
2023-04-27T03:57:35.553Z,2.47
2023-04-27T04:00:07.630Z,2.73
2023-04-27T04:02:40.840Z,2.23
2023-04-27T04:05:09.904Z,2.13
2023-04-27T04:07:38.047Z,2.83
2023-04-27T04:10:07.748Z,2.67
2023-04-27T04:12:35.955Z,1.93
2023-04-27T04:15:05.100Z,2.13
2023-04-27T04:17:34.788Z,2.20
2023-04-27T04:20:08.722Z,2.20
2023-04-27T17:32:11.067Z,2.50
2023-04-27T17:34:41.056Z,2.08
2023-04-27T17:37:10.950Z,3.38
2023-04-27T17:39:39.134Z,2.35
2023-04-27T17:42:11.844Z,2.20
2023-04-27T17:44:41.731Z,1.98
2023-04-27T17:47:10.044Z,2.17
2023-04-27T17:49:38.063Z,2.40
2023-04-27T17:52:06.624Z,2.15
2023-04-27T17:54:34.937Z,2.92
2023-04-27T17:57:03.532Z,2.63
2023-04-27T17:59:31.412Z,2.92
2023-04-27T18:01:59.642Z,2.53
2023-04-27T18:04:27.948Z,2.30
2023-04-27T18:06:57.094Z,2.50
2023-04-27T18:09:26.324Z,2.35
2023-04-27T18:11:54.678Z,2.15
2023-04-27T18:14:23.064Z,3.20
2023-04-27T18:16:50.992Z,2.67
2023-04-27T18:19:19.287Z,2.92
2023-04-27T18:21:47.273Z,2.90
2023-04-27T18:24:15.167Z,2.63
2023-04-27T18:26:43.258Z,2.60
2023-04-27T18:29:11.556Z,2.38
2023-04-27T18:31:39.884Z,2.10
2023-04-27T18:34:08.110Z,2.33
2023-04-27T18:36:36.539Z,2.75
2023-04-27T18:39:05.053Z,3.30
2023-04-27T18:41:33.460Z,2.30
2023-04-27T18:44:06.174Z,2.65
2023-04-27T18:46:34.573Z,2.40
2023-04-27T18:49:03.308Z,2.75
2023-04-27T18:51:32.059Z,2.35
2023-04-27T18:54:00.353Z,5.50
2023-04-27T18:56:28.616Z,4.80
2023-04-27T18:58:57.026Z,13.50
2023-04-27T19:01:30.451Z,20.23
2023-04-27T19:03:59.536Z,9.80
2023-04-27T19:06:27.876Z,9.13
2023-04-27T19:08:56.471Z,6.30
2023-04-27T19:11:25.446Z,5.07
2023-04-27T19:13:53.901Z,4.57
2023-04-27T19:16:24.100Z,3.70
2023-04-27T19:18:52.265Z,3.42
2023-04-27T19:21:20.986Z,3.28
2023-04-27T19:23:49.332Z,2.60
2023-04-27T19:26:17.797Z,4.22
2023-04-27T19:28:46.283Z,3.10
2023-04-27T19:31:14.734Z,3.00
2023-04-27T19:33:46.690Z,3.05
2023-04-27T19:36:15.696Z,2.90
2023-04-27T19:38:43.930Z,2.45
2023-04-27T19:41:14.343Z,2.33
2023-04-27T19:43:42.659Z,2.55
2023-04-27T19:46:11.044Z,2.42
2023-04-27T19:48:39.280Z,2.60
2023-04-27T19:51:10.891Z,2.90
2023-04-27T19:53:39.584Z,2.40
2023-04-27T19:56:07.988Z,2.60
2023-04-27T19:58:37.132Z,1.98
2023-04-27T20:01:06.195Z,2.17
2023-04-27T20:03:35.666Z,2.08
2023-04-27T20:06:04.656Z,2.40
2023-04-27T20:08:34.080Z,2.10
2023-04-27T20:11:02.328Z,2.47
2023-04-27T20:13:30.976Z,2.13
2023-04-27T20:15:59.252Z,2.00
2023-04-27T20:18:31.531Z,2.25
2023-04-27T20:21:00.065Z,2.22
2023-04-27T20:23:28.049Z,2.63
2023-04-27T20:25:56.340Z,2.60
2023-04-27T20:28:24.583Z,2.97
2023-04-27T20:30:52.818Z,2.65
2023-04-27T20:33:21.381Z,2.15
2023-04-27T20:38:22.035Z,2.10
2023-04-27T20:40:52.610Z,2.50
2023-04-27T20:43:21.186Z,2.50
2023-04-27T20:45:49.444Z,2.53
2023-04-27T20:48:17.757Z,2.45
2023-04-27T20:50:45.755Z,2.33
2023-04-27T20:53:14.208Z,2.38
2023-04-27T20:55:42.940Z,3.05
2023-04-27T20:58:10.904Z,2.58
2023-04-27T21:00:39.242Z,2.50
2023-04-27T21:03:08.276Z,2.60
2023-04-27T21:05:36.699Z,2.22
2023-04-27T21:08:05.218Z,2.80
2023-04-27T21:10:35.244Z,2.75
2023-04-27T21:13:04.052Z,2.20
2023-04-27T21:15:33.349Z,2.85
2023-04-27T21:18:01.821Z,2.28
2023-04-27T21:20:30.580Z,2.78
2023-04-27T21:22:59.007Z,2.10
2023-04-27T21:25:27.551Z,2.42
2023-04-27T21:27:55.989Z,2.03
2023-04-27T21:30:24.369Z,2.40
2023-04-27T21:32:52.729Z,2.05
2023-04-27T21:35:21.312Z,2.40
2023-04-27T21:37:50.425Z,2.00
2023-04-27T21:40:18.498Z,2.20
2023-04-27T21:42:46.904Z,2.40
2023-04-27T21:45:15.297Z,2.13
2023-04-27T21:47:43.559Z,2.70
2023-04-27T21:50:11.822Z,2.60
2023-04-27T21:52:40.041Z,2.70
2023-04-27T21:55:08.342Z,2.38
2023-04-27T21:57:36.775Z,3.00
2023-04-27T22:00:13.189Z,2.92
2023-04-27T22:02:49.546Z,2.30
2023-04-27T22:05:20.911Z,3.17
2023-04-27T22:10:17.055Z,2.88
2023-04-27T22:12:46.791Z,2.67
2023-04-27T22:15:15.499Z,3.08
2023-04-27T22:17:43.953Z,2.08
2023-04-27T22:20:12.899Z,2.70
2023-04-27T22:22:41.604Z,2.25
2023-04-27T22:25:11.575Z,2.60
2023-04-27T22:27:44.963Z,2.28
2023-04-27T22:30:14.603Z,2.58
2023-04-27T22:32:42.972Z,2.63
2023-04-27T22:35:24.803Z,2.47
2023-04-27T22:37:57.301Z,2.60
2023-04-27T22:40:25.911Z,2.22
2023-04-27T22:42:55.210Z,2.67
2023-04-27T22:45:24.126Z,2.50
2023-04-27T22:47:52.557Z,2.53
2023-04-27T22:50:20.966Z,2.38
2023-04-27T22:52:49.974Z,2.15
2023-04-27T22:55:18.508Z,2.50
2023-04-27T22:57:46.885Z,2.60
2023-04-27T23:00:16.152Z,2.33
2023-04-27T23:02:44.558Z,2.35
2023-04-27T23:05:13.021Z,2.40
2023-04-27T23:07:42.846Z,2.58
2023-04-27T23:10:12.848Z,2.30
2023-04-27T23:12:41.571Z,2.50
2023-04-27T23:15:10.641Z,2.90
2023-04-27T23:17:38.927Z,3.03
2023-04-27T23:20:24.057Z,3.08
2023-04-27T23:22:55.570Z,2.85
2023-04-27T23:25:24.113Z,2.90
2023-04-27T23:27:53.041Z,2.58
2023-04-27T23:30:22.313Z,2.28
2023-04-27T23:32:50.723Z,2.45
2023-04-27T23:35:19.299Z,2.42
2023-04-27T23:37:47.991Z,2.67
2023-04-27T23:40:16.470Z,2.58
2023-04-27T23:42:48.533Z,2.28
2023-04-27T23:45:20.786Z,3.30
2023-04-27T23:47:49.095Z,2.45
2023-04-27T23:50:17.372Z,2.75
2023-04-27T23:52:45.688Z,2.72
2023-04-27T23:55:13.953Z,3.10
2023-04-27T23:57:42.763Z,2.75
